createdAt,value
2023-02-17T00:01:32.574Z,100939.91
2023-02-17T00:06:33.752Z,100937.31
2023-02-17T00:11:34.966Z,100935.22
2023-02-17T00:16:36.125Z,100924.75
2023-02-17T00:21:37.287Z,100923.19
2023-02-17T00:26:38.569Z,100921.91
2023-02-17T00:31:39.872Z,100917.69
2023-02-17T00:36:41.167Z,100913.78
2023-02-17T00:41:42.315Z,100911.16
2023-02-17T00:46:43.556Z,100910.09
2023-02-17T00:51:44.762Z,100916.59
2023-02-17T00:56:45.933Z,100920.75
2023-02-17T01:01:47.170Z,100907.03
2023-02-17T01:06:48.358Z,100911.94
2023-02-17T01:11:49.680Z,100895.63
2023-02-17T01:16:50.949Z,100893.25
2023-02-17T01:21:52.160Z,100894.56
2023-02-17T01:26:53.414Z,100885.66
2023-02-17T01:31:54.640Z,100877.75
2023-02-17T01:36:55.876Z,100860.41
2023-02-17T01:41:57.047Z,100864.63
2023-02-17T01:46:58.285Z,100857.25
2023-02-17T01:51:59.467Z,100854.03
2023-02-17T01:57:00.754Z,100839.59
2023-02-17T02:02:02.154Z,100842.22
2023-02-17T02:07:03.431Z,100841.13
2023-02-17T02:12:04.590Z,100838.44
2023-02-17T02:17:05.816Z,100836.38
2023-02-17T02:22:06.999Z,100831.13
2023-02-17T02:27:08.257Z,100834.78
2023-02-17T02:32:09.418Z,100832.41
2023-02-17T02:37:10.633Z,100825.28
2023-02-17T02:42:11.837Z,100815.84
2023-02-17T02:47:13.026Z,100816.66
2023-02-17T02:52:14.147Z,100815.03
2023-02-17T02:57:15.315Z,100801.63
2023-02-17T03:02:16.496Z,100802.94
2023-02-17T03:07:21.366Z,100794.56
2023-02-17T03:12:22.554Z,100795.13
2023-02-17T03:17:23.764Z,100796.13
2023-02-17T03:22:24.956Z,100801.38
2023-02-17T03:27:26.164Z,100787.19
2023-02-17T03:32:27.297Z,100784.84
2023-02-17T03:37:28.473Z,100784.59
2023-02-17T03:42:29.626Z,100778.31
2023-02-17T03:47:30.885Z,100781.75
2023-02-17T03:52:32.109Z,100783.81
2023-02-17T03:57:34.713Z,100778.00
2023-02-17T04:02:35.932Z,100771.19
2023-02-17T04:07:37.166Z,100768.31
2023-02-17T04:12:38.352Z,100786.97
2023-02-17T04:17:39.652Z,100794.31
2023-02-17T04:22:40.896Z,100789.31
2023-02-17T04:27:42.157Z,100794.00
2023-02-17T04:32:43.367Z,100787.16
2023-02-17T04:37:44.548Z,100796.34
2023-02-17T04:42:45.704Z,100797.66
2023-02-17T04:47:46.926Z,100792.41
2023-02-17T04:52:48.097Z,100791.31
2023-02-17T04:57:49.289Z,100786.38
2023-02-17T05:02:50.424Z,100783.97
2023-02-17T05:07:51.570Z,100770.78
2023-02-17T05:12:52.828Z,100785.47
2023-02-17T05:17:54.008Z,100782.56
2023-02-17T05:22:55.215Z,100773.13
2023-02-17T05:27:56.471Z,100786.56
2023-02-17T05:32:57.911Z,100779.41
2023-02-17T05:37:59.127Z,100740.69
2023-02-17T05:43:00.370Z,100760.19
2023-02-17T05:48:01.590Z,100761.72
2023-02-17T05:53:02.736Z,100773.31
2023-02-17T05:58:04.057Z,100766.94
2023-02-17T06:03:05.257Z,100758.50
2023-02-17T06:08:06.701Z,100756.16
2023-02-17T06:13:07.853Z,100759.84
2023-02-17T06:18:09.054Z,100758.00
2023-02-17T06:23:11.408Z,100774.81
2023-02-17T06:28:12.622Z,100769.56
2023-02-17T06:33:13.824Z,100763.75
2023-02-17T06:38:15.069Z,100754.81
2023-02-17T06:43:16.240Z,100754.81
2023-02-17T06:48:17.418Z,100763.25
2023-02-17T06:53:18.590Z,100752.69
2023-02-17T06:58:19.793Z,100773.38
2023-02-17T07:03:20.951Z,100770.97
2023-02-17T07:08:22.110Z,100767.84
2023-02-17T07:13:23.338Z,100767.31
2023-02-17T07:18:24.517Z,100775.97
2023-02-17T07:23:25.638Z,100777.31
2023-02-17T07:28:26.856Z,100763.66
2023-02-17T07:33:28.001Z,100770.81
2023-02-17T07:38:29.189Z,100760.03
2023-02-17T07:43:30.434Z,100767.84
2023-02-17T07:48:31.577Z,100770.47
2023-02-17T07:53:32.763Z,100774.63
2023-02-17T07:58:34.069Z,100782.47
2023-02-17T08:03:35.360Z,100784.50
2023-02-17T08:08:55.399Z,100776.56
2023-02-17T08:13:56.677Z,100776.53
2023-02-17T08:18:57.934Z,100787.72
2023-02-17T08:23:59.179Z,100785.81
2023-02-17T08:29:00.414Z,100790.78
2023-02-17T08:34:01.660Z,100785.25
2023-02-17T08:39:02.879Z,100796.19
2023-02-17T08:44:04.107Z,100801.69
2023-02-17T08:49:05.315Z,100787.84
2023-02-17T08:54:06.550Z,100779.28
2023-02-17T08:59:08.258Z,100779.22
2023-02-17T09:04:09.532Z,100774.88
2023-02-17T09:09:10.793Z,100774.53
2023-02-17T09:14:11.971Z,100773.81
2023-02-17T09:19:13.132Z,100781.69
2023-02-17T09:24:14.296Z,100786.44
2023-02-17T09:29:15.560Z,100781.69
2023-02-17T09:34:16.788Z,100769.81
2023-02-17T09:39:17.987Z,100775.19
2023-02-17T09:44:19.229Z,100778.97
2023-02-17T09:49:20.393Z,100786.97
2023-02-17T09:54:21.669Z,100780.34
2023-02-17T09:59:22.856Z,100791.84
2023-02-17T10:04:24.298Z,100794.19
2023-02-17T10:09:25.618Z,100798.75
2023-02-17T10:14:26.865Z,100801.16
2023-02-17T10:19:28.113Z,100804.47
2023-02-17T10:24:29.393Z,100789.16
2023-02-17T10:29:30.685Z,100805.22
2023-02-17T10:34:31.826Z,100802.75
2023-02-17T10:39:33.089Z,100786.75
2023-02-17T10:44:34.791Z,100784.06
2023-02-17T10:49:36.047Z,100791.44
2023-02-17T10:54:37.241Z,100790.69
2023-02-17T10:59:38.462Z,100790.47
2023-02-17T11:04:39.706Z,100786.06
2023-02-17T11:09:40.873Z,100807.63
2023-02-17T11:14:42.108Z,100778.50
2023-02-17T11:19:43.309Z,100756.47
2023-02-17T11:24:44.538Z,100754.78
2023-02-17T11:29:45.868Z,100758.56
2023-02-17T11:34:47.057Z,100777.84
2023-02-17T11:39:48.264Z,100749.88
2023-02-17T11:44:49.448Z,100731.88
2023-02-17T11:49:50.744Z,100742.34
2023-02-17T11:54:51.988Z,100727.41
2023-02-17T11:59:53.268Z,100716.88
2023-02-17T12:04:54.486Z,100735.69
2023-02-17T12:09:55.728Z,100745.34
2023-02-17T12:14:56.920Z,100752.63
2023-02-17T12:19:58.182Z,100739.25
2023-02-17T12:24:59.451Z,100743.44
2023-02-17T12:30:01.297Z,100722.25
2023-02-17T12:35:02.625Z,100734.56
2023-02-17T12:40:03.835Z,100716.38
2023-02-17T12:45:04.968Z,100718.56
2023-02-17T12:50:06.166Z,100709.72
2023-02-17T12:55:07.439Z,100709.59
2023-02-17T13:00:08.644Z,100699.38
2023-02-17T13:05:09.833Z,100685.13
2023-02-17T13:10:11.043Z,100673.75
2023-02-17T13:15:12.431Z,100673.63
2023-02-17T13:20:14.468Z,100689.13
2023-02-17T13:25:15.658Z,100682.56
2023-02-17T13:30:16.817Z,100680.69
2023-02-17T13:35:17.983Z,100685.84
2023-02-17T13:40:19.156Z,100707.31
2023-02-17T13:45:20.374Z,100702.31
2023-02-17T13:50:22.027Z,100715.53
2023-02-17T13:55:26.244Z,100707.41
2023-02-17T14:00:27.701Z,100713.16
2023-02-17T14:05:29.068Z,100700.38
2023-02-17T14:10:30.240Z,100706.28
2023-02-17T14:15:31.429Z,100726.78
2023-02-17T14:20:32.685Z,100729.69
2023-02-17T14:25:33.868Z,100720.63
2023-02-17T14:30:35.210Z,100739.25
2023-02-17T14:35:39.110Z,100755.72
2023-02-17T14:40:40.409Z,100743.59
2023-02-17T14:45:41.613Z,100744.97
2023-02-17T14:50:43.936Z,100759.59
2023-02-17T14:55:45.127Z,100739.34
2023-02-17T15:00:46.342Z,100758.28
2023-02-17T15:05:47.551Z,100770.53
2023-02-17T15:10:48.713Z,100774.63
2023-02-17T15:15:50.034Z,100779.91
2023-02-17T15:20:51.309Z,100776.63
2023-02-17T15:25:54.638Z,100788.97
2023-02-17T15:30:55.855Z,100783.31
2023-02-17T15:35:57.056Z,100799.41
2023-02-17T15:40:58.734Z,100790.13
2023-02-17T15:45:59.994Z,100799.16
2023-02-17T15:51:01.177Z,100798.25
2023-02-17T15:56:02.385Z,100806.09
2023-02-17T16:01:04.040Z,100839.56
2023-02-17T16:06:05.757Z,100836.78
2023-02-17T16:11:07.173Z,100847.84
2023-02-17T16:16:08.706Z,100867.69
2023-02-17T16:21:10.092Z,100877.94
2023-02-17T16:26:11.322Z,100862.47
2023-02-17T16:31:13.086Z,100877.31
2023-02-17T16:36:14.621Z,100891.91
2023-02-17T16:41:15.912Z,100899.69
2023-02-17T16:46:17.159Z,100894.56
2023-02-17T16:51:18.419Z,100901.03
2023-02-17T16:56:19.690Z,100919.41
2023-02-17T17:01:22.079Z,100936.13
2023-02-17T17:06:24.121Z,100929.38
2023-02-17T17:11:25.360Z,100934.44
2023-02-17T17:16:26.534Z,100947.06
2023-02-17T17:21:27.762Z,100962.88
2023-02-17T17:26:28.943Z,100970.53
2023-02-17T17:31:30.249Z,100968.19
2023-02-17T17:36:31.470Z,100972.97
2023-02-17T17:41:32.686Z,100982.22
2023-02-17T17:46:34.914Z,100985.63
2023-02-17T17:51:36.103Z,100994.31
2023-02-17T17:56:38.742Z,100984.56
2023-02-17T18:01:39.928Z,100985.63
2023-02-17T18:06:41.149Z,100985.34
2023-02-17T18:11:42.351Z,100998.25
2023-02-17T18:16:43.512Z,101007.19
2023-02-17T18:21:44.870Z,101004.06
2023-02-17T18:26:46.019Z,101023.53
2023-02-17T18:31:47.309Z,101027.25
2023-02-17T18:36:48.498Z,101025.16
2023-02-17T18:41:49.708Z,101042.56
2023-02-17T18:46:50.859Z,101046.06
2023-02-17T18:51:52.131Z,101035.31
2023-02-17T18:56:53.518Z,101047.94
2023-02-17T19:01:54.718Z,101061.38
2023-02-17T19:06:55.932Z,101068.75
2023-02-17T19:11:57.115Z,101080.63
2023-02-17T19:16:58.274Z,101082.78
2023-02-17T19:21:59.518Z,101080.38
2023-02-17T19:27:00.706Z,101087.75
2023-02-17T19:32:01.940Z,101095.13
2023-02-17T19:37:03.190Z,101094.34
2023-02-17T19:42:04.457Z,101088.06
2023-02-17T19:47:05.657Z,101096.53
2023-02-17T19:52:07.457Z,101090.72
2023-02-17T19:57:08.741Z,101092.84
2023-02-17T20:02:09.934Z,101108.41
2023-02-17T20:07:11.132Z,101113.16
2023-02-17T20:12:12.359Z,101116.34
2023-02-17T20:17:13.512Z,101118.47
2023-02-17T20:22:14.759Z,101119.78
2023-02-17T20:27:15.905Z,101116.66
2023-02-17T20:32:17.165Z,101111.94
2023-02-17T20:37:18.494Z,101121.94
2023-02-17T20:42:19.716Z,101121.44
2023-02-17T20:47:20.849Z,101116.44
2023-02-17T20:52:21.990Z,101116.22
2023-02-17T20:57:23.396Z,101133.03
2023-02-17T21:02:24.624Z,101133.56
2023-02-17T21:07:25.792Z,101146.22
2023-02-17T21:12:27.071Z,101148.06
2023-02-17T21:17:28.345Z,101147.81
2023-02-17T21:22:29.491Z,101141.50
2023-02-17T21:27:30.726Z,101142.03
2023-02-17T21:32:31.889Z,101127.31
2023-02-17T21:37:33.050Z,101144.97
2023-02-17T21:42:53.133Z,101141.78
2023-02-17T21:47:54.269Z,101146.28
2023-02-17T21:52:55.414Z,101142.06
2023-02-17T21:57:56.648Z,101139.44
2023-02-17T22:02:57.809Z,101141.00
2023-02-17T22:07:58.970Z,101138.66
2023-02-17T22:13:00.180Z,101139.16
2023-02-17T22:18:01.437Z,101141.00
2023-02-17T22:23:02.633Z,101151.53
2023-02-17T22:28:03.816Z,101149.16
2023-02-17T22:33:05.073Z,101145.75
2023-02-17T22:38:06.215Z,101137.88
2023-02-17T22:43:07.464Z,101136.28
2023-02-17T22:48:08.634Z,101125.78
2023-02-17T22:53:09.801Z,101134.75
2023-02-17T22:58:10.948Z,101123.69
2023-02-17T23:03:12.123Z,101114.25
2023-02-17T23:08:13.307Z,101117.41
2023-02-17T23:13:14.499Z,101122.16
2023-02-17T23:18:15.678Z,101115.31
2023-02-17T23:23:16.931Z,101112.69
2023-02-17T23:28:18.063Z,101117.16
2023-02-17T23:33:19.273Z,101119.00
2023-02-17T23:38:20.487Z,101110.59
2023-02-17T23:43:22.345Z,101119.28
2023-02-17T23:48:23.585Z,101110.59
2023-02-17T23:53:24.830Z,101109.03
2023-02-17T23:58:26.048Z,101109.81
